Time;durP1;ratioP1;P1;durP2;ratioP2;P2;SDS_P1;SDS_P2;PMS_P1;PMS_P2;Temp;Humidity;BMP_temperature;BMP_pressure;BME280_temperature;BME280_humidity;BME280_pressure;Samples;Min_cycle;Max_cycle;Signal;HPM_P1;HPM_P2
2021/11/24 00:00:00;;;;;;;16.55;14.75;;;;;;;17.94;31.26;95093.19;4994711;28;20453;-51
2021/11/24 00:02:27;;;;;;;17.75;14.70;;;;;;;18.35;30.71;95089.97;4994728;28;20050;-50
2021/11/24 00:04:54;;;;;;;16.42;14.45;;;;;;;18.96;29.53;95087.84;4994338;28;20046;-50
2021/11/24 00:07:21;;;;;;;16.27;14.43;;;;;;;19.07;29.11;95084.50;4994754;28;20050;-51
2021/11/24 00:09:48;;;;;;;17.42;15.07;;;;;;;18.90;29.71;95089.91;4994574;28;20042;-49
2021/11/24 00:12:15;;;;;;;16.90;15.10;;;;;;;17.68;31.63;95093.25;4994321;28;20050;-49
2021/11/24 00:14:42;;;;;;;16.30;14.45;;;;;;;17.31;32.69;95095.41;4994338;28;20050;-50
2021/11/24 00:17:10;;;;;;;15.85;14.10;;;;;;;17.70;32.21;95097.16;4994743;28;20046;-49
2021/11/24 00:19:37;;;;;;;14.82;13.32;;;;;;;16.89;33.72;95102.97;4994365;28;20046;-48
2021/11/24 00:22:04;;;;;;;15.43;13.75;;;;;;;16.88;33.81;95103.25;4994859;28;20046;-48
2021/11/24 00:24:31;;;;;;;14.82;13.23;;;;;;;16.78;34.07;95098.28;4993686;28;20216;-50
2021/11/24 00:26:58;;;;;;;14.48;12.98;;;;;;;16.83;33.91;95100.78;4994243;28;20050;-49
2021/11/24 00:29:25;;;;;;;14.55;12.98;;;;;;;16.98;33.49;95102.22;4994541;28;20057;-50
2021/11/24 00:31:52;;;;;;;14.98;12.93;;;;;;;16.84;34.18;95102.31;4994730;28;20046;-48
2021/11/24 00:34:19;;;;;;;15.25;13.55;;;;;;;16.51;34.63;95117.72;4994543;28;20038;-48
2021/11/24 00:36:46;;;;;;;14.80;12.90;;;;;;;16.86;33.94;95106.22;4994350;28;20050;-48
2021/11/24 00:39:13;;;;;;;14.68;13.18;;;;;;;16.89;33.73;95110.09;4994619;28;20050;-48
2021/11/24 00:41:40;;;;;;;14.27;12.32;;;;;;;17.72;32.22;95107.41;5014127;28;20053;-50
2021/11/24 00:44:07;;;;;;;14.80;13.15;;;;;;;16.72;33.66;95108.22;4995044;28;20054;-48
2021/11/24 00:46:34;;;;;;;15.45;13.90;;;;;;;16.80;34.02;95107.44;4994356;28;20361;-50
2021/11/24 00:49:01;;;;;;;15.10;13.52;;;;;;;16.45;34.33;95117.09;4994282;28;20054;-50
2021/11/24 00:51:29;;;;;;;14.30;12.80;;;;;;;16.80;33.89;95101.38;4997027;28;20079;-48
2021/11/24 00:53:56;;;;;;;14.13;12.60;;;;;;;16.99;33.46;95104.53;4997595;28;20038;-47
2021/11/24 00:56:23;;;;;;;14.50;12.75;;;;;;;16.60;33.92;95092.91;4997162;28;20050;-49
2021/11/24 00:58:50;;;;;;;14.57;12.70;;;;;;;16.81;33.77;95100.31;4996188;28;20042;-48
2021/11/24 01:01:17;;;;;;;14.07;12.63;;;;;;;17.19;32.86;95103.97;4998092;28;20042;-48
2021/11/24 01:03:45;;;;;;;14.35;12.32;;;;;;;16.71;33.64;95103.25;4997727;28;20053;-50
2021/11/24 01:06:12;;;;;;;14.60;13.10;;;;;;;16.32;34.44;95099.50;4997655;28;20058;-45
2021/11/24 01:08:39;;;;;;;13.55;12.15;;;;;;;16.44;34.57;95093.66;4997071;28;20046;-51
2021/11/24 01:11:06;;;;;;;14.30;12.60;;;;;;;16.60;34.06;95092.13;4997365;28;20054;-48
2021/11/24 01:13:33;;;;;;;14.60;12.80;;;;;;;16.56;34.22;95091.97;4997746;28;20038;-47
2021/11/24 01:16:00;;;;;;;14.07;12.52;;;;;;;16.74;33.82;95092.06;4997129;28;20061;-47
2021/11/24 01:18:27;;;;;;;14.07;12.57;;;;;;;16.37;34.26;95096.72;4997820;28;20046;-48
2021/11/24 01:20:54;;;;;;;16.23;14.25;;;;;;;16.29;34.59;95102.75;4997368;28;20046;-50
2021/11/24 01:23:22;;;;;;;14.55;12.82;;;;;;;16.48;34.25;95098.00;4997620;28;20050;-49
2021/11/24 01:25:49;;;;;;;15.05;13.52;;;;;;;16.72;33.70;95094.22;4997556;28;20147;-49
2021/11/24 01:28:16;;;;;;;15.07;13.48;;;;;;;16.13;35.01;95099.69;4997067;28;20058;-49
2021/11/24 01:30:43;;;;;;;15.15;13.55;;;;;;;16.33;34.61;95087.84;4997290;28;20050;-49
2021/11/24 01:33:10;;;;;;;15.00;13.50;;;;;;;16.38;34.48;95090.34;4996937;28;20069;-49
2021/11/24 01:35:37;;;;;;;15.50;13.80;;;;;;;16.35;34.71;95083.81;4997457;28;20046;-49
2021/11/24 01:38:05;;;;;;;17.13;13.40;;;;;;;16.28;34.54;95085.34;4997702;28;20054;-49
2021/11/24 01:40:32;;;;;;;15.30;13.75;;;;;;;16.63;34.13;95087.03;4997308;28;20057;-46
2021/11/24 01:42:59;;;;;;;15.57;13.85;;;;;;;16.62;34.00;95077.53;4996839;28;20046;-47
2021/11/24 01:45:26;;;;;;;14.85;13.25;;;;;;;16.89;33.56;95088.97;4997049;28;20053;-46
2021/11/24 01:47:54;;;;;;;15.02;13.43;;;;;;;16.71;33.75;95082.91;4997221;28;20050;-48
2021/11/24 01:50:21;;;;;;;14.93;13.43;;;;;;;17.25;32.90;95081.56;4996835;28;20046;-48
2021/11/24 01:52:49;;;;;;;15.40;13.75;;;;;;;16.85;33.60;95083.53;4996015;28;20042;-50
2021/11/24 01:55:16;;;;;;;15.10;13.60;;;;;;;16.60;34.09;95076.31;4996382;28;20058;-48
2021/11/24 01:57:46;;;;;;;14.95;13.45;;;;;;;16.51;34.14;95081.56;4996470;28;20046;-50
2021/11/24 02:00:16;;;;;;;15.75;14.05;;;;;;;16.52;34.18;95077.06;4996695;28;20053;-49
2021/11/24 02:02:43;;;;;;;16.75;15.00;;;;;;;16.57;34.08;95077.69;4995030;28;20053;-50
2021/11/24 02:05:10;;;;;;;15.43;13.88;;;;;;;16.70;33.83;95080.56;4996311;28;20050;-49
2021/11/24 02:07:38;;;;;;;17.38;13.63;;;;;;;16.87;33.60;95070.03;4995957;28;20053;-49
2021/11/24 02:10:05;;;;;;;16.77;15.05;;;;;;;16.64;33.91;95078.00;4996423;28;20057;-47
2021/11/24 02:12:32;;;;;;;16.63;14.90;;;;;;;16.46;34.42;95080.94;4996261;28;20053;-50
2021/11/24 02:15:00;;;;;;;15.82;14.10;;;;;;;16.79;33.95;95073.44;4996432;28;20050;-50
2021/11/24 02:17:27;;;;;;;15.52;13.93;;;;;;;16.72;34.18;95073.13;4996629;28;20357;-49
2021/11/24 02:19:54;;;;;;;16.55;14.77;;;;;;;16.69;34.34;95073.72;4995801;28;20476;-50
2021/11/24 02:22:22;;;;;;;16.90;15.10;;;;;;;17.33;33.03;95079.25;4995238;28;20432;-48
2021/11/24 02:24:49;;;;;;;15.75;14.25;;;;;;;16.93;33.53;95064.31;4996204;28;20049;-50
2021/11/24 02:27:16;;;;;;;17.00;15.30;;;;;;;16.75;33.71;95067.22;4995874;28;20400;-49
2021/11/24 02:29:44;;;;;;;17.50;15.15;;;;;;;16.76;34.23;95074.06;4996092;28;20057;-48
2021/11/24 02:32:14;;;;;;;20.63;16.85;;;;;;;16.38;34.58;95079.78;4996109;28;20066;-49
2021/11/24 02:34:42;;;;;;;19.90;16.25;;;;;;;16.58;34.51;95073.97;4995852;28;20057;-47
2021/11/24 02:37:09;;;;;;;19.02;17.02;;;;;;;16.47;34.53;95066.66;4995985;28;20050;-51
2021/11/24 02:39:36;;;;;;;21.40;16.80;;;;;;;16.47;34.51;95075.34;4995874;28;20054;-50
2021/11/24 02:42:03;;;;;;;20.02;16.65;;;;;;;16.20;34.54;95070.28;4994858;28;20050;-50
2021/11/24 02:44:36;;;;;;;24.70;17.95;;;;;;;16.32;34.77;95065.19;4995984;28;20369;-46
2021/11/24 02:47:10;;;;;;;18.73;16.35;;;;;;;16.30;34.59;95067.34;4995735;28;20437;-47
2021/11/24 02:49:46;;;;;;;21.15;16.77;;;;;;;16.28;34.72;95064.25;4996105;28;20039;-47
2021/11/24 02:52:13;;;;;;;19.42;16.80;;;;;;;15.96;35.49;95071.41;4995404;28;20392;-47
2021/11/24 02:54:47;;;;;;;17.15;15.35;;;;;;;16.20;34.89;95067.63;4996008;28;20038;-47
2021/11/24 02:57:14;;;;;;;17.67;15.75;;;;;;;16.00;35.16;95077.63;4994579;28;20046;-50
2021/11/24 02:59:41;;;;;;;23.55;16.02;;;;;;;16.42;34.44;95070.22;4995868;28;20050;-50
2021/11/24 03:02:08;;;;;;;18.45;16.02;;;;;;;16.04;35.19;95069.88;4994338;28;20473;-48
2021/11/24 03:04:37;;;;;;;18.83;15.90;;;;;;;16.41;34.42;95063.38;4995643;28;20335;-49
2021/11/24 03:07:04;;;;;;;17.55;15.30;;;;;;;16.40;34.65;95061.03;4994578;28;20054;-48
2021/11/24 03:09:32;;;;;;;20.73;16.70;;;;;;;16.11;34.99;95078.13;4995695;28;20046;-48
2021/11/24 03:11:59;;;;;;;20.08;16.20;;;;;;;16.15;34.87;95076.47;4994666;28;20050;-47
2021/11/24 03:14:26;;;;;;;18.73;16.30;;;;;;;16.14;34.73;95087.31;4994800;28;20038;-48
2021/11/24 03:16:55;;;;;;;20.50;16.60;;;;;;;16.08;35.09;95080.59;4994609;28;20054;-48
2021/11/24 03:19:22;;;;;;;19.83;17.73;;;;;;;15.77;35.45;95076.09;4994679;28;20057;-49
2021/11/24 03:21:49;;;;;;;18.73;16.60;;;;;;;16.23;34.87;95077.56;4995185;28;20050;-49
2021/11/24 03:24:17;;;;;;;18.98;16.92;;;;;;;16.39;34.46;95067.38;4994934;28;20050;-50
2021/11/24 03:26:44;;;;;;;18.60;16.73;;;;;;;16.44;34.42;95077.81;4994868;28;20053;-49
2021/11/24 03:29:11;;;;;;;19.33;16.33;;;;;;;16.31;34.83;95076.81;4995154;28;20062;-49
2021/11/24 03:31:38;;;;;;;19.45;16.70;;;;;;;16.62;33.86;95084.69;4995304;28;20484;-49
2021/11/24 03:34:06;;;;;;;18.15;16.25;;;;;;;16.41;34.21;95081.06;4994428;28;20046;-49
2021/11/24 03:36:33;;;;;;;19.58;16.85;;;;;;;16.44;34.07;95088.38;4995324;28;20330;-49
2021/11/24 03:39:00;;;;;;;18.35;15.82;;;;;;;16.56;34.28;95084.06;4995077;28;20057;-50
2021/11/24 03:41:28;;;;;;;19.25;17.15;;;;;;;16.24;34.66;95094.97;4995260;28;20050;-50
2021/11/24 03:43:55;;;;;;;19.27;16.52;;;;;;;16.23;34.67;95096.81;4993867;28;20072;-49
2021/11/24 03:46:22;;;;;;;20.27;17.13;;;;;;;16.31;34.74;95095.28;4995125;28;20050;-48
2021/11/24 03:48:49;;;;;;;18.83;16.15;;;;;;;16.40;34.49;95096.13;4994943;28;20046;-51
2021/11/24 03:51:17;;;;;;;18.08;15.90;;;;;;;16.51;34.27;95091.34;4994173;28;20054;-48
2021/11/24 03:53:44;;;;;;;17.92;15.95;;;;;;;16.38;34.42;95089.56;4994363;28;20038;-49
2021/11/24 03:56:12;;;;;;;17.33;15.50;;;;;;;16.32;34.87;95096.84;4995052;28;20049;-48
2021/11/24 03:58:41;;;;;;;20.20;16.08;;;;;;;16.42;34.47;95091.31;4994341;28;20065;-49
2021/11/24 04:01:09;;;;;;;19.45;16.83;;;;;;;16.04;35.18;95101.53;4994794;28;20096;-49
2021/11/24 04:03:36;;;;;;;18.75;16.75;;;;;;;16.32;34.81;95099.50;4994214;28;20057;-49
2021/11/24 04:06:03;;;;;;;18.10;16.23;;;;;;;16.55;34.19;95108.91;4994978;28;20069;-49
2021/11/24 04:08:30;;;;;;;16.83;15.13;;;;;;;16.62;34.39;95103.94;4994947;28;20081;-45
2021/11/24 04:10:57;;;;;;;20.85;16.42;;;;;;;16.24;34.62;95111.56;4994745;28;20513;-48
2021/11/24 04:13:24;;;;;;;18.13;15.07;;;;;;;16.94;33.42;95112.63;4994185;28;20058;-48
2021/11/24 04:15:51;;;;;;;17.98;16.05;;;;;;;16.36;34.42;95118.91;4994910;28;20050;-49
2021/11/24 04:18:18;;;;;;;18.52;16.55;;;;;;;16.27;34.44;95120.72;4994437;28;20053;-47
2021/11/24 04:20:45;;;;;;;17.20;15.02;;;;;;;16.22;34.36;95112.94;4994231;28;20058;-49
2021/11/24 04:23:12;;;;;;;17.75;15.57;;;;;;;16.83;33.48;95116.63;4994137;28;20050;-46
2021/11/24 04:25:39;;;;;;;17.33;15.45;;;;;;;16.89;33.53;95115.38;4997495;28;20057;-49
2021/11/24 04:28:06;;;;;;;17.85;14.95;;;;;;;16.44;33.97;95120.81;4997136;28;20054;-49
2021/11/24 04:30:34;;;;;;;17.00;15.20;;;;;;;16.72;33.75;95110.06;4997582;28;20046;-48
2021/11/24 04:33:01;;;;;;;16.92;15.10;;;;;;;16.49;33.73;95118.03;4997780;28;20438;-49
2021/11/24 04:35:28;;;;;;;17.45;15.65;;;;;;;16.43;34.18;95124.53;4998505;28;20648;-49
2021/11/24 04:37:55;;;;;;;17.23;15.13;;;;;;;17.33;32.65;95122.28;4998531;28;20326;-49
2021/11/24 04:40:23;;;;;;;17.55;15.70;;;;;;;16.68;33.61;95125.75;4998444;28;20050;-50
2021/11/24 04:42:52;;;;;;;17.58;15.70;;;;;;;16.72;33.73;95115.34;4997589;28;20445;-48
2021/11/24 04:45:19;;;;;;;17.65;15.05;;;;;;;16.89;33.18;95128.59;4997895;28;20073;-49
2021/11/24 04:47:46;;;;;;;18.08;16.17;;;;;;;16.73;33.78;95124.84;4998378;28;20042;-49
2021/11/24 04:50:15;;;;;;;18.38;15.77;;;;;;;16.53;33.81;95128.75;4998351;28;20053;-49
2021/11/24 04:52:43;;;;;;;16.52;14.82;;;;;;;16.51;34.13;95131.72;4997107;28;20050;-50
2021/11/24 04:55:10;;;;;;;16.60;14.90;;;;;;;16.23;34.25;95130.34;4997771;28;20135;-49
2021/11/24 04:57:37;;;;;;;16.67;14.98;;;;;;;16.21;34.37;95138.56;4997086;28;20053;-48
2021/11/24 05:00:08;;;;;;;17.13;14.57;;;;;;;17.04;33.42;95136.09;4997708;28;20061;-49
2021/11/24 05:02:35;;;;;;;16.17;14.40;;;;;;;17.41;32.48;95141.88;4997572;28;20045;-50
2021/11/24 05:05:03;;;;;;;17.30;15.50;;;;;;;17.23;32.42;95144.53;4997951;28;20479;-50
2021/11/24 05:07:30;;;;;;;16.42;14.75;;;;;;;16.71;33.43;95145.47;4997353;28;20370;-49
2021/11/24 05:09:57;;;;;;;17.08;14.38;;;;;;;16.77;33.30;95144.25;4996533;28;20073;-49
2021/11/24 05:12:24;;;;;;;15.82;14.10;;;;;;;16.60;33.77;95150.97;4997197;28;20049;-49
2021/11/24 05:14:52;;;;;;;16.65;14.77;;;;;;;16.49;34.02;95144.44;4996578;28;20457;-51
2021/11/24 05:17:22;;;;;;;16.75;14.60;;;;;;;16.68;33.94;95152.16;4997835;28;20442;-49
2021/11/24 05:19:50;;;;;;;16.80;15.10;;;;;;;17.31;32.62;95152.75;4997643;28;20053;-47
2021/11/24 05:22:18;;;;;;;16.08;14.45;;;;;;;17.20;33.18;95147.78;4997252;28;20042;-48
2021/11/24 05:24:45;;;;;;;16.27;14.57;;;;;;;17.03;33.06;95152.25;5001353;28;20683;-50
2021/11/24 05:27:14;;;;;;;16.13;14.43;;;;;;;16.58;33.98;95158.44;5010606;28;20240;-49
2021/11/24 05:29:41;;;;;;;17.08;14.82;;;;;;;16.55;34.21;95161.69;4997756;28;20088;-50
2021/11/24 05:32:08;;;;;;;16.80;15.00;;;;;;;17.60;31.79;95162.75;4996527;28;20046;-49
2021/11/24 05:34:35;;;;;;;15.55;13.95;;;;;;;17.03;33.52;95154.88;4996303;28;20046;-50
2021/11/24 05:37:03;;;;;;;17.20;15.05;;;;;;;17.02;33.40;95156.75;4996093;28;20057;-49
2021/11/24 05:39:32;;;;;;;17.88;15.07;;;;;;;17.25;32.67;95163.50;4997379;28;20050;-50
2021/11/24 05:41:59;;;;;;;17.90;14.32;;;;;;;17.85;31.44;95152.19;4996814;28;20361;-46
2021/11/24 05:44:26;;;;;;;16.73;15.02;;;;;;;17.06;32.72;95160.34;4997546;28;20046;-47
2021/11/24 05:47:00;;;;;;;16.55;14.38;;;;;;;17.02;33.28;95162.03;4989677;28;20342;-55
2021/11/24 05:49:28;;;;;;;18.00;15.00;;;;;;;16.69;33.99;95168.78;5014831;28;20049;-54
2021/11/24 05:51:57;;;;;;;16.48;14.75;;;;;;;16.63;34.19;95160.94;4995912;28;20050;-42
2021/11/24 05:54:24;;;;;;;16.15;14.07;;;;;;;17.35;32.73;95158.97;4996958;28;20046;-64
2021/11/24 05:56:52;;;;;;;16.92;15.10;;;;;;;17.17;32.69;95163.44;4963421;28;20058;-47
2021/11/24 05:59:19;;;;;;;16.15;14.38;;;;;;;16.98;33.23;95171.66;5007596;28;20373;-53
2021/11/24 06:01:46;;;;;;;15.50;13.90;;;;;;;17.16;32.78;95177.75;5009817;28;20061;-52
2021/11/24 06:04:14;;;;;;;16.73;14.85;;;;;;;16.52;33.98;95175.50;4995982;28;20472;-54
2021/11/24 06:06:41;;;;;;;16.85;15.15;;;;;;;16.71;34.04;95177.94;4995191;28;20054;-52
2021/11/24 06:09:08;;;;;;;16.65;14.85;;;;;;;16.84;33.47;95184.19;4996720;28;20054;-52
2021/11/24 06:11:35;;;;;;;18.58;14.88;;;;;;;15.88;34.87;95188.16;4996032;28;20054;-51
2021/11/24 06:14:02;;;;;;;19.33;15.45;;;;;;;14.64;37.99;95187.53;4996471;28;20050;-56
2021/11/24 06:16:29;;;;;;;17.48;15.50;;;;;;;14.56;38.36;95193.44;4995567;28;20073;-51
2021/11/24 06:18:56;;;;;;;17.73;15.10;;;;;;;14.32;39.89;95195.44;4996311;28;20437;-52
2021/11/24 06:21:23;;;;;;;16.23;14.02;;;;;;;14.32;39.90;95198.06;4995692;28;20065;-50
2021/11/24 06:23:51;;;;;;;17.13;15.25;;;;;;;14.26;39.49;95199.19;4996279;28;20453;-51
2021/11/24 06:26:21;;;;;;;20.13;14.35;;;;;;;14.12;39.24;95202.59;4996102;28;20057;-51
2021/11/24 06:28:49;;;;;;;18.42;15.45;;;;;;;14.41;39.63;95205.00;4995901;28;20062;-51
2021/11/24 06:31:16;;;;;;;16.67;14.63;;;;;;;14.62;38.40;95210.72;4996142;28;20046;-56
2021/11/24 06:33:43;;;;;;;16.77;14.98;;;;;;;14.14;38.90;95205.69;4995635;28;20065;-51
2021/11/24 06:36:10;;;;;;;17.55;15.05;;;;;;;14.04;39.74;95216.38;4996073;28;20050;-52
2021/11/24 06:38:37;;;;;;;16.48;14.55;;;;;;;14.45;38.85;95216.53;4996115;28;20453;-51
2021/11/24 06:41:05;;;;;;;20.10;15.70;;;;;;;14.51;38.87;95209.31;4996112;28;20047;-51
2021/11/24 06:43:32;;;;;;;16.17;14.35;;;;;;;14.60;38.32;95215.50;4995678;28;20065;-52
2021/11/24 06:45:59;;;;;;;18.27;15.32;;;;;;;14.44;38.60;95214.97;4994700;28;20065;-51
2021/11/24 06:48:26;;;;;;;16.27;14.30;;;;;;;14.36;38.81;95228.75;4996022;28;20058;-51
2021/11/24 06:50:54;;;;;;;15.93;14.23;;;;;;;14.37;38.34;95232.16;4995788;28;20061;-53
2021/11/24 06:53:21;;;;;;;16.23;14.23;;;;;;;14.46;38.36;95218.09;4978042;28;20230;-54
2021/11/24 06:55:48;;;;;;;17.83;14.23;;;;;;;14.27;38.56;95224.44;4995327;28;20043;-51
2021/11/24 06:58:15;;;;;;;16.98;14.82;;;;;;;14.49;38.46;95219.34;4994718;28;20061;-51
2021/11/24 07:00:43;;;;;;;16.98;14.05;;;;;;;14.58;38.45;95222.91;4995133;28;20046;-52
2021/11/24 07:03:10;;;;;;;18.70;14.63;;;;;;;14.68;38.06;95221.94;4995203;28;20050;-51
2021/11/24 07:05:37;;;;;;;15.70;14.05;;;;;;;14.26;38.58;95222.88;4995681;28;20058;-52
2021/11/24 07:08:05;;;;;;;15.80;14.15;;;;;;;14.53;38.36;95230.06;4994600;28;20062;-54
2021/11/24 07:10:32;;;;;;;16.13;13.70;;;;;;;14.39;38.57;95230.03;4995633;28;20338;-53
2021/11/24 07:13:00;;;;;;;15.82;14.10;;;;;;;14.33;38.67;95231.97;4994617;28;20054;-52
2021/11/24 07:15:27;;;;;;;16.30;14.35;;;;;;;14.42;38.22;95226.81;4994929;28;20054;-51
2021/11/24 07:17:54;;;;;;;18.08;15.73;;;;;;;14.42;38.45;95232.06;4995514;28;20054;-51
2021/11/24 07:20:22;;;;;;;17.10;14.35;;;;;;;14.43;38.27;95218.66;4995470;28;20744;-51
2021/11/24 07:22:49;;;;;;;19.30;16.00;;;;;;;14.26;39.25;95221.03;4994873;28;20417;-52
2021/11/24 07:25:16;;;;;;;19.67;15.73;;;;;;;14.37;38.94;95224.28;4994981;28;20051;-51
2021/11/24 07:27:44;;;;;;;22.48;16.35;;;;;;;14.33;39.29;95225.94;4994738;28;20221;-50
2021/11/24 07:30:12;;;;;;;18.00;15.00;;;;;;;14.24;38.94;95225.00;4995234;28;20058;-51
2021/11/24 07:32:39;;;;;;;16.42;14.65;;;;;;;14.10;39.50;95228.38;4989159;28;20053;-52
2021/11/24 07:35:07;;;;;;;18.23;15.18;;;;;;;14.25;38.67;95224.72;4986786;28;20046;-51
2021/11/24 07:37:34;;;;;;;20.33;15.40;;;;;;;14.02;39.52;95223.75;4988472;28;20808;-52
2021/11/24 07:40:02;;;;;;;20.85;16.02;;;;;;;14.28;39.14;95226.78;4983542;28;20057;-51
2021/11/24 07:42:29;;;;;;;21.45;16.08;;;;;;;14.63;39.31;95227.28;4983160;28;20365;-51
2021/11/24 07:44:56;;;;;;;19.65;16.05;;;;;;;14.51;39.09;95235.63;4994405;28;20046;-53
2021/11/24 07:47:23;;;;;;;19.40;16.13;;;;;;;14.63;38.15;95238.59;4993700;28;20065;-51
2021/11/24 07:49:50;;;;;;;19.88;15.80;;;;;;;14.53;38.82;95232.72;4994694;28;20066;-53
2021/11/24 07:52:18;;;;;;;20.58;16.75;;;;;;;14.68;38.43;95222.69;4991988;28;20057;-52
2021/11/24 07:54:45;;;;;;;18.25;15.57;;;;;;;14.78;38.81;95230.41;4977225;28;20046;-52
2021/11/24 07:57:13;;;;;;;19.38;15.85;;;;;;;14.85;38.24;95230.03;4994483;28;20046;-53
2021/11/24 07:59:40;;;;;;;18.15;16.00;;;;;;;14.63;38.45;95230.69;4997966;28;20062;-51
2021/11/24 08:02:07;;;;;;;19.58;16.02;;;;;;;14.67;38.46;95226.41;5000247;28;20050;-52
2021/11/24 08:04:34;;;;;;;19.88;16.30;;;;;;;14.42;39.08;95227.59;5001385;28;20054;-51
2021/11/24 08:07:03;;;;;;;19.13;16.30;;;;;;;14.45;38.77;95227.03;5001379;28;20046;-53
2021/11/24 08:09:31;;;;;;;19.38;15.73;;;;;;;14.50;39.62;95223.53;5000538;28;20069;-55
2021/11/24 08:11:59;;;;;;;19.30;15.57;;;;;;;14.30;39.40;95226.47;5000546;28;20061;-51
2021/11/24 08:14:27;;;;;;;18.35;15.45;;;;;;;14.46;39.61;95223.34;5001377;28;20360;-53
2021/11/24 08:16:54;;;;;;;18.55;15.43;;;;;;;14.55;39.27;95218.19;5001182;28;20050;-52
2021/11/24 08:19:22;;;;;;;17.98;15.20;;;;;;;14.77;39.29;95223.59;5001048;28;20054;-51
2021/11/24 08:21:49;;;;;;;20.13;14.80;;;;;;;14.70;39.30;95222.41;5000414;28;20053;-51
2021/11/24 08:24:16;;;;;;;17.25;15.38;;;;;;;14.71;39.18;95229.22;5001427;28;20057;-51
2021/11/24 08:26:44;;;;;;;18.02;15.63;;;;;;;14.66;39.46;95227.47;5000880;28;20053;-51
2021/11/24 08:29:11;;;;;;;20.67;16.30;;;;;;;14.75;39.34;95225.72;5000934;28;20084;-53
2021/11/24 08:31:42;;;;;;;20.20;16.30;;;;;;;14.78;38.72;95224.34;5000689;28;20049;-50
2021/11/24 08:34:12;;;;;;;23.23;18.38;;;;;;;15.10;38.63;95226.16;5001301;28;20050;-50
2021/11/24 08:36:39;;;;;;;21.13;16.70;;;;;;;14.98;38.78;95228.47;5001422;28;20061;-51
2021/11/24 08:39:07;;;;;;;20.85;17.85;;;;;;;14.95;38.39;95223.78;5000347;28;20054;-51
2021/11/24 08:41:34;;;;;;;20.52;18.35;;;;;;;15.06;38.22;95227.78;5000980;28;20058;-50
2021/11/24 08:44:02;;;;;;;23.88;18.90;;;;;;;16.36;35.21;95229.72;5000375;28;20054;-53
2021/11/24 08:46:29;;;;;;;22.05;19.30;;;;;;;15.47;38.38;95233.03;5001415;28;20389;-52
2021/11/24 08:48:56;;;;;;;26.33;20.10;;;;;;;15.31;37.63;95227.28;5000913;28;20042;-50
2021/11/24 08:51:23;;;;;;;27.20;20.67;;;;;;;15.43;38.14;95227.56;5001393;28;20050;-50
2021/11/24 08:53:50;;;;;;;27.45;21.77;;;;;;;15.23;37.91;95227.19;5000756;28;20042;-50
2021/11/24 08:56:17;;;;;;;27.25;23.30;;;;;;;15.63;37.99;95220.34;4991075;28;20365;-51
2021/11/24 08:58:44;;;;;;;28.90;23.90;;;;;;;15.37;38.36;95215.59;4995250;28;20050;-51
2021/11/24 09:01:11;;;;;;;27.98;21.23;;;;;;;15.70;37.59;95218.06;5000899;28;20054;-55
2021/11/24 09:03:39;;;;;;;28.30;22.17;;;;;;;15.46;38.09;95214.88;5000493;28;20441;-51
2021/11/24 09:06:06;;;;;;;28.98;21.92;;;;;;;15.41;38.20;95216.56;5000912;28;20381;-52
2021/11/24 09:08:34;;;;;;;30.52;21.80;;;;;;;15.30;38.45;95215.19;5000130;28;20053;-51
2021/11/24 09:11:02;;;;;;;27.13;21.08;;;;;;;15.19;38.13;95211.22;4997988;28;20046;-51
2021/11/24 09:13:29;;;;;;;24.42;19.75;;;;;;;15.51;38.01;95209.50;4996497;28;20476;-49
2021/11/24 09:15:56;;;;;;;27.27;21.55;;;;;;;15.85;36.93;95209.81;4997745;28;20046;-52
2021/11/24 09:18:23;;;;;;;28.20;22.40;;;;;;;15.67;37.83;95202.88;4997423;28;20054;-51
2021/11/24 09:20:51;;;;;;;25.40;21.83;;;;;;;15.50;37.68;95214.00;4997637;28;20050;-52
2021/11/24 09:23:21;;;;;;;30.95;25.25;;;;;;;15.69;36.98;95216.53;4997277;28;20077;-53
2021/11/24 09:25:51;;;;;;;30.15;24.92;;;;;;;15.96;36.72;95205.88;4997608;28;20054;-52
2021/11/24 09:28:21;;;;;;;31.08;25.30;;;;;;;16.26;36.24;95198.31;4996694;28;20058;-53
2021/11/24 09:30:50;;;;;;;29.48;24.38;;;;;;;17.03;34.77;95200.56;4997296;28;20376;-52
2021/11/24 09:33:17;;;;;;;29.38;25.38;;;;;;;16.16;36.61;95203.84;4997003;28;20047;-52
2021/11/24 09:35:45;;;;;;;34.80;27.17;;;;;;;16.06;36.95;95193.53;4996672;28;20345;-52
2021/11/24 09:38:12;;;;;;;33.15;26.52;;;;;;;15.90;37.45;95196.53;4996759;28;20061;-51
2021/11/24 09:40:39;;;;;;;31.05;24.27;;;;;;;16.38;35.91;95190.63;4997425;28;20080;-51
2021/11/24 09:43:08;;;;;;;28.70;23.02;;;;;;;16.70;35.38;95191.44;4996056;28;20050;-51
2021/11/24 09:45:36;;;;;;;27.17;21.88;;;;;;;17.37;33.89;95193.81;4997258;28;20066;-51
2021/11/24 09:48:03;;;;;;;19.23;16.55;;;;;;;17.54;33.30;95188.56;4996922;28;20457;-52
2021/11/24 09:50:33;;;;;;;19.95;17.52;;;;;;;17.40;33.78;95187.91;4997210;28;20049;-52
2021/11/24 09:53:01;;;;;;;20.35;16.52;;;;;;;16.50;35.16;95192.72;4996563;28;20050;-52
2021/11/24 09:55:30;;;;;;;21.02;17.10;;;;;;;16.59;35.36;95185.59;4997021;28;20047;-51
2021/11/24 09:57:58;;;;;;;20.00;16.02;;;;;;;16.36;35.84;95182.22;4996173;28;20046;-55
2021/11/24 10:00:25;;;;;;;20.25;15.50;;;;;;;16.96;34.35;95187.03;4997035;28;20054;-54
2021/11/24 10:02:58;;;;;;;19.65;17.55;;;;;;;16.03;36.47;95185.13;4996501;28;20046;-51
2021/11/24 10:05:26;;;;;;;23.55;18.65;;;;;;;16.40;36.00;95166.59;4996835;28;20058;-53
2021/11/24 10:07:54;;;;;;;24.50;19.30;;;;;;;16.81;35.49;95171.59;4996859;28;20053;-52
2021/11/24 10:10:22;;;;;;;22.77;18.08;;;;;;;17.43;34.19;95164.28;4996537;28;20058;-52
2021/11/24 10:12:49;;;;;;;21.27;18.25;;;;;;;16.96;35.18;95168.56;4996008;28;20054;-52
2021/11/24 10:15:45;;;;;;;23.42;19.95;;;;;;;16.90;34.97;95167.13;4996673;28;20057;-51
2021/11/24 10:18:21;;;;;;;25.15;20.67;;;;;;;17.43;34.44;95155.56;4995026;28;20061;-54
2021/11/24 10:20:53;;;;;;;24.08;19.48;;;;;;;17.64;33.80;95145.94;4996523;28;20057;-54
2021/11/24 10:23:32;;;;;;;24.73;19.55;;;;;;;17.11;34.65;95162.03;4995780;28;20058;-52
2021/11/24 10:26:36;;;;;;;23.70;17.98;;;;;;;16.98;35.14;95155.81;4996444;28;20054;-51
2021/11/24 10:29:12;;;;;;;20.70;17.23;;;;;;;18.36;32.89;95147.88;4987297;28;20054;-52
2021/11/24 10:31:44;;;;;;;21.23;16.50;;;;;;;18.32;32.85;95149.63;4996189;28;20046;-55
2021/11/24 10:34:18;;;;;;;18.55;16.55;;;;;;;17.43;33.79;95155.56;4995231;28;20041;-53
2021/11/24 10:37:05;;;;;;;21.30;17.00;;;;;;;17.75;33.91;95146.44;4996326;28;20050;-53
2021/11/24 10:39:39;;;;;;;20.60;17.17;;;;;;;17.04;35.28;95151.16;4995980;28;20054;-54
2021/11/24 10:42:20;;;;;;;23.27;16.65;;;;;;;17.41;34.61;95147.16;4995420;28;20050;-55
2021/11/24 10:45:13;;;;;;;21.42;17.73;;;;;;;16.92;35.41;95151.75;4995994;28;20053;-52
2021/11/24 10:47:49;;;;;;;21.70;16.88;;;;;;;15.91;37.58;95142.72;4996324;28;20073;-52
2021/11/24 10:50:25;;;;;;;19.73;16.50;;;;;;;16.50;36.34;95140.72;4993330;28;20065;-52
2021/11/24 10:52:52;;;;;;;21.23;17.20;;;;;;;16.83;35.87;95143.03;4994086;28;20397;-51
2021/11/24 10:55:30;;;;;;;24.95;17.98;;;;;;;16.31;37.04;95137.50;4995474;28;20049;-52
2021/11/24 10:58:16;;;;;;;21.73;17.65;;;;;;;16.51;36.49;95136.97;4993483;28;20523;-48
2021/11/24 11:00:46;;;;;;;21.40;18.15;;;;;;;16.22;37.46;95123.50;4994999;28;20405;-51
2021/11/24 11:03:14;;;;;;;20.00;17.00;;;;;;;16.40;37.01;95127.78;4995223;28;20076;-51
2021/11/24 11:05:45;;;;;;;20.45;16.38;;;;;;;16.17;37.51;95124.41;4995358;28;20061;-52
2021/11/24 11:08:15;;;;;;;21.50;17.23;;;;;;;15.86;38.09;95123.59;5007074;28;20445;-51
2021/11/24 11:10:49;;;;;;;22.40;18.08;;;;;;;16.35;37.08;95122.63;4996042;28;20057;-51
2021/11/24 11:13:22;;;;;;;22.70;17.35;;;;;;;16.71;36.61;95116.44;4995433;28;20057;-51
2021/11/24 11:15:54;;;;;;;19.85;17.75;;;;;;;16.29;37.29;95123.84;4994410;28;20051;-55
2021/11/24 11:18:26;;;;;;;24.40;21.43;;;;;;;16.29;37.05;95129.13;4984359;28;20476;-51
2021/11/24 11:21:03;;;;;;;26.73;21.10;;;;;;;16.21;37.60;95120.09;4991762;28;20065;-52